Terminal Aerodrome Forecast
Issued by NWS

Home | Current Version | Previous Version | Text Only | Print | Product List | Glossary Off
Versions: 1 2 3 4 5 6 7 8 9 10 11 12 13 14

000
FTUS42 KMHX 270532
TAFISO
TAF
KISO 270532Z 2706/2806 18005KT P6SM SCT025 BKN040
     FM271600 19010G15KT P6SM VCSH BKN040
     FM272300 18005KT P6SM BKN040
      AMD LTD TO CLD VIS AND WIND=

USA.gov is the U.S. government's official web portal to all federal, state and local government web resources and services.